createdAt,value
2019-03-28T00:01:17.228Z,83.28
2019-03-28T00:03:45.677Z,83.16
2019-03-28T00:06:14.168Z,83.50
2019-03-28T00:08:42.622Z,83.92
2019-03-28T00:11:11.035Z,83.67
2019-03-28T00:13:39.500Z,84.02
2019-03-28T00:16:07.968Z,83.26
2019-03-28T00:18:36.422Z,83.64
2019-03-28T00:21:04.909Z,83.71
2019-03-28T00:23:35.158Z,83.71
2019-03-28T00:26:03.740Z,84.22
2019-03-28T00:28:32.161Z,84.16
2019-03-28T00:31:00.688Z,84.11
2019-03-28T00:33:29.111Z,83.93
2019-03-28T00:35:57.553Z,83.41
2019-03-28T00:38:26.045Z,83.73
2019-03-28T00:40:55.185Z,83.85
2019-03-28T00:43:23.781Z,83.31
2019-03-28T00:45:52.208Z,82.97
2019-03-28T00:48:20.668Z,83.65
2019-03-28T00:50:49.255Z,83.65
2019-03-28T00:53:17.728Z,83.27
2019-03-28T00:55:46.159Z,83.72
2019-03-28T00:58:14.602Z,83.63
2019-03-28T01:00:43.174Z,83.57
2019-03-28T01:03:11.595Z,83.57
2019-03-28T01:05:40.143Z,83.31
2019-03-28T01:08:08.605Z,83.31
2019-03-28T01:10:37.172Z,82.70
2019-03-28T01:13:05.610Z,83.02
2019-03-28T01:15:34.109Z,83.06
2019-03-28T01:18:02.571Z,83.95
2019-03-28T01:20:30.996Z,83.67
2019-03-28T01:22:59.460Z,84.38
2019-03-28T01:25:27.879Z,84.32
2019-03-28T01:27:56.313Z,84.31
2019-03-28T01:30:24.774Z,83.93
2019-03-28T01:32:53.480Z,83.64
2019-03-28T01:35:21.911Z,83.63
2019-03-28T01:37:50.322Z,83.73
2019-03-28T01:40:18.799Z,82.92
2019-03-28T01:42:47.302Z,82.20
2019-03-28T01:45:15.782Z,81.86
2019-03-28T01:47:44.375Z,81.72
2019-03-28T01:50:12.935Z,83.43
2019-03-28T01:52:41.453Z,83.47
2019-03-28T01:55:09.952Z,83.67
2019-03-28T01:57:39.347Z,82.77
2019-03-28T02:00:10.757Z,83.12
2019-03-28T02:02:39.206Z,82.92
2019-03-28T02:05:08.696Z,83.54
2019-03-28T02:07:37.117Z,83.54
2019-03-28T02:10:07.295Z,82.95
2019-03-28T02:12:35.808Z,83.58
2019-03-28T02:15:08.409Z,82.73
2019-03-28T02:17:38.087Z,83.59
2019-03-28T02:20:10.721Z,84.76
2019-03-28T02:22:39.176Z,85.18
2019-03-28T02:25:08.267Z,82.75
2019-03-28T02:27:36.680Z,82.75
2019-03-28T02:30:08.734Z,83.92
2019-03-28T02:32:37.151Z,82.84
2019-03-28T02:35:06.446Z,84.01
2019-03-28T02:37:35.255Z,82.91
2019-03-28T02:40:04.818Z,82.55
2019-03-28T02:42:33.233Z,83.43
2019-03-28T02:45:01.683Z,83.87
2019-03-28T02:47:30.130Z,83.60
2019-03-28T02:49:58.587Z,83.46
2019-03-28T02:52:27.008Z,83.28
2019-03-28T02:54:55.427Z,83.28
2019-03-28T02:57:39.607Z,82.88
2019-03-28T02:59:54.732Z,82.21
2019-03-28T03:02:23.423Z,81.97
2019-03-28T03:04:52.012Z,81.88
2019-03-28T03:07:20.485Z,81.40
2019-03-28T03:09:48.908Z,80.66
2019-03-28T03:12:17.329Z,81.06
2019-03-28T03:14:45.811Z,81.65
2019-03-28T03:17:14.418Z,81.94
2019-03-28T03:19:44.172Z,81.60
2019-03-28T03:22:12.658Z,81.27
2019-03-28T03:24:41.085Z,81.44
2019-03-28T03:27:09.537Z,81.37
2019-03-28T03:29:37.976Z,85.04
2019-03-28T03:32:06.417Z,83.84
2019-03-28T03:34:34.854Z,84.30
2019-03-28T03:37:03.949Z,84.30
2019-03-28T03:39:32.634Z,84.46
2019-03-28T03:42:01.091Z,83.82
2019-03-28T03:44:29.502Z,83.01
2019-03-28T03:46:57.958Z,82.96
2019-03-28T03:49:26.467Z,83.72
2019-03-28T03:51:54.945Z,83.72
2019-03-28T03:54:23.362Z,83.70
2019-03-28T03:56:51.837Z,83.55
2019-03-28T03:59:20.271Z,83.57
2019-03-28T04:01:48.681Z,83.39
2019-03-28T04:04:17.201Z,83.84
2019-03-28T04:06:45.807Z,83.64
2019-03-28T04:09:14.242Z,83.99
2019-03-28T04:11:42.664Z,85.04
2019-03-28T04:14:11.113Z,84.34
2019-03-28T04:16:39.525Z,83.38
2019-03-28T04:19:07.979Z,83.00
2019-03-28T04:21:37.098Z,82.65
2019-03-28T04:24:05.543Z,82.65
2019-03-28T04:26:33.969Z,83.90
2019-03-28T04:29:02.395Z,83.40
2019-03-28T04:31:30.846Z,84.27
2019-03-28T04:34:06.606Z,84.33
2019-03-28T04:36:29.915Z,83.95
2019-03-28T04:38:58.355Z,84.09
2019-03-28T04:41:26.782Z,83.06
2019-03-28T04:43:56.080Z,83.89
2019-03-28T04:46:24.657Z,84.63
2019-03-28T04:48:53.106Z,84.13
2019-03-28T04:51:21.524Z,83.82
2019-03-28T04:53:49.973Z,85.63
2019-03-28T04:56:18.390Z,86.65
2019-03-28T04:58:46.813Z,86.89
2019-03-28T05:01:15.376Z,86.85
2019-03-28T05:03:43.806Z,87.74
2019-03-28T05:06:12.289Z,87.68
2019-03-28T05:08:40.746Z,87.83
2019-03-28T05:11:09.195Z,86.47
2019-03-28T05:13:37.620Z,85.56
2019-03-28T05:16:06.057Z,85.51
2019-03-28T05:18:34.580Z,85.39
2019-03-28T05:21:03.029Z,84.24
2019-03-28T05:23:31.526Z,84.46
2019-03-28T05:25:59.992Z,84.63
2019-03-28T05:28:28.416Z,84.76
2019-03-28T05:30:56.854Z,83.37
2019-03-28T05:33:25.425Z,82.69
2019-03-28T05:35:53.901Z,83.54
2019-03-28T05:38:22.325Z,82.92
2019-03-28T05:40:50.845Z,83.80
2019-03-28T05:43:19.305Z,84.71
2019-03-28T05:45:47.834Z,85.14
2019-03-28T05:48:16.293Z,85.02
2019-03-28T05:50:44.723Z,84.10
2019-03-28T05:53:13.185Z,81.93
2019-03-28T05:55:41.601Z,81.04
2019-03-28T05:58:10.030Z,80.51
2019-03-28T06:00:39.087Z,80.15
2019-03-28T06:03:08.788Z,78.98
2019-03-28T06:05:37.207Z,79.95
2019-03-28T06:08:05.705Z,79.46
2019-03-28T06:10:34.146Z,78.73
2019-03-28T06:13:02.634Z,78.22
2019-03-28T06:15:31.198Z,77.01
2019-03-28T06:17:59.688Z,76.29
2019-03-28T06:20:28.231Z,75.98
2019-03-28T06:22:56.631Z,74.75
2019-03-28T06:25:25.082Z,73.85
2019-03-28T06:27:53.519Z,73.77
2019-03-28T06:30:22.110Z,73.27
2019-03-28T06:32:50.530Z,72.53
2019-03-28T06:35:21.843Z,72.37
2019-03-28T06:37:51.501Z,71.15
2019-03-28T06:40:19.304Z,69.90
2019-03-28T06:42:47.742Z,69.25
2019-03-28T06:45:16.248Z,68.99
2019-03-28T06:47:44.669Z,68.60
2019-03-28T06:50:13.254Z,68.27
2019-03-28T06:52:41.719Z,66.71
2019-03-28T06:55:10.483Z,65.72
2019-03-28T06:57:38.901Z,65.65
2019-03-28T07:00:09.536Z,65.06
2019-03-28T07:02:38.681Z,63.02
2019-03-28T07:05:11.415Z,63.22
2019-03-28T07:07:39.989Z,62.60
2019-03-28T07:10:10.554Z,62.85
2019-03-28T07:12:39.491Z,61.40
2019-03-28T07:15:09.012Z,59.90
2019-03-28T07:17:37.459Z,59.61
2019-03-28T07:20:09.089Z,58.96
2019-03-28T07:22:36.867Z,58.06
2019-03-28T07:25:06.802Z,56.50
2019-03-28T07:27:35.993Z,54.55
2019-03-28T07:30:10.477Z,54.27
2019-03-28T07:32:38.944Z,53.23
2019-03-28T07:35:07.710Z,51.07
2019-03-28T07:37:36.227Z,49.04
2019-03-28T07:40:06.693Z,48.64
2019-03-28T07:42:35.310Z,48.14
2019-03-28T07:45:07.546Z,46.19
2019-03-28T07:47:35.993Z,46.35
2019-03-28T07:50:09.206Z,44.28
2019-03-28T07:52:37.700Z,43.82
2019-03-28T07:55:07.561Z,43.73
2019-03-28T07:57:36.018Z,42.16
2019-03-28T08:00:07.085Z,40.87
2019-03-28T08:02:35.766Z,41.12
2019-03-28T08:05:06.114Z,41.65
2019-03-28T08:07:44.246Z,40.60
2019-03-28T08:10:06.651Z,40.07
2019-03-28T08:12:35.194Z,40.22
2019-03-28T08:15:06.759Z,41.35
2019-03-28T08:17:35.186Z,39.94
2019-03-28T08:20:09.033Z,40.96
2019-03-28T08:22:37.538Z,38.68
2019-03-28T08:25:11.675Z,38.34
2019-03-28T08:27:38.843Z,38.49
2019-03-28T08:30:18.262Z,36.34
2019-03-28T08:32:40.258Z,34.38
2019-03-28T08:35:10.402Z,36.00
2019-03-28T08:37:39.130Z,34.83
2019-03-28T08:40:09.120Z,34.38
2019-03-28T08:42:37.570Z,33.67
2019-03-28T08:45:07.890Z,32.36
2019-03-28T08:47:36.528Z,31.55
2019-03-28T08:50:07.144Z,33.43
2019-03-28T08:52:35.717Z,33.26
2019-03-28T08:55:09.835Z,32.53
2019-03-28T08:57:36.807Z,31.12
2019-03-28T09:00:08.275Z,32.24
2019-03-28T09:02:36.773Z,32.29
2019-03-28T09:05:06.321Z,30.80
2019-03-28T09:07:34.787Z,29.96
2019-03-28T09:10:04.840Z,29.03
2019-03-28T09:12:35.292Z,29.75
2019-03-28T09:15:06.191Z,29.46
2019-03-28T09:17:34.708Z,28.72
2019-03-28T09:20:04.468Z,29.40
2019-03-28T09:22:33.175Z,29.19
2019-03-28T09:25:01.657Z,29.23
2019-03-28T09:27:30.089Z,28.40
2019-03-28T09:29:58.541Z,27.83
2019-03-28T09:32:27.730Z,28.23
2019-03-28T09:34:56.516Z,27.79
2019-03-28T09:37:24.989Z,27.31
2019-03-28T09:39:53.407Z,25.63
2019-03-28T09:42:21.831Z,25.62
2019-03-28T09:44:50.359Z,25.10
2019-03-28T09:47:18.844Z,25.07
2019-03-28T09:49:47.289Z,24.67
2019-03-28T09:52:15.780Z,25.26
2019-03-28T09:54:44.206Z,25.72
2019-03-28T09:57:12.621Z,25.88
2019-03-28T09:59:41.138Z,24.98
2019-03-28T10:02:09.625Z,25.16
2019-03-28T10:04:38.132Z,23.91
2019-03-28T10:07:06.547Z,26.42
2019-03-28T10:09:35.513Z,26.53
2019-03-28T10:12:04.180Z,26.71
2019-03-28T10:14:32.639Z,26.66
2019-03-28T10:17:01.495Z,25.05
2019-03-28T10:19:30.276Z,26.32
2019-03-28T10:21:58.731Z,25.14
2019-03-28T10:24:27.187Z,27.84
2019-03-28T10:26:55.671Z,23.91
2019-03-28T10:29:24.234Z,24.42
2019-03-28T10:31:52.791Z,31.73
2019-03-28T10:34:21.345Z,27.16
2019-03-28T10:36:49.811Z,26.43
2019-03-28T10:39:18.256Z,26.18
2019-03-28T10:41:46.809Z,29.04
2019-03-28T10:44:15.300Z,28.11
2019-03-28T10:46:43.766Z,25.79
2019-03-28T10:49:12.198Z,27.93
2019-03-28T10:51:40.931Z,26.69
2019-03-28T10:54:20.151Z,27.11
2019-03-28T10:56:51.209Z,27.99
2019-03-28T10:59:22.708Z,28.64
2019-03-28T11:01:49.770Z,26.42
2019-03-28T11:04:10.120Z,27.43
2019-03-28T11:06:38.564Z,27.02
2019-03-28T11:09:08.832Z,29.48
2019-03-28T11:11:37.398Z,30.38
2019-03-28T11:14:05.879Z,30.53
2019-03-28T11:16:34.373Z,29.51
2019-03-28T11:19:02.821Z,31.14
2019-03-28T11:21:34.219Z,30.93
2019-03-28T11:24:01.440Z,30.37
2019-03-28T11:26:29.900Z,31.94
2019-03-28T11:29:00.969Z,32.65
2019-03-28T11:31:28.478Z,34.10
2019-03-28T11:33:56.943Z,32.55
2019-03-28T11:36:25.757Z,32.51
2019-03-28T11:38:54.940Z,33.68
2019-03-28T11:41:23.564Z,31.87
2019-03-28T11:43:52.016Z,32.22
2019-03-28T11:46:20.435Z,31.91
2019-03-28T11:48:48.872Z,33.47
2019-03-28T11:51:17.331Z,34.71
2019-03-28T11:53:45.747Z,32.77
2019-03-28T11:56:14.226Z,32.68
2019-03-28T11:58:42.777Z,32.71
2019-03-28T12:01:11.269Z,33.36
2019-03-28T12:03:39.701Z,33.44
2019-03-28T12:06:08.230Z,32.40
2019-03-28T12:08:36.659Z,32.92
2019-03-28T12:11:05.092Z,33.73
2019-03-28T12:13:44.156Z,33.59
2019-03-28T12:16:04.259Z,33.38
2019-03-28T12:18:32.701Z,33.50
2019-03-28T12:21:01.299Z,34.13
2019-03-28T12:23:31.393Z,33.43
2019-03-28T12:25:59.878Z,34.28
2019-03-28T12:28:28.311Z,34.58
2019-03-28T12:30:56.758Z,34.30
2019-03-28T12:33:25.248Z,34.38
2019-03-28T12:35:53.670Z,34.88
2019-03-28T12:38:22.115Z,35.01
2019-03-28T12:40:50.955Z,35.19
2019-03-28T12:43:19.431Z,35.21
2019-03-28T12:45:47.847Z,35.25
2019-03-28T12:48:16.292Z,35.25
2019-03-28T12:50:58.022Z,35.63
2019-03-28T12:53:14.898Z,35.60
2019-03-28T12:55:43.329Z,35.71
2019-03-28T12:58:11.788Z,36.69
2019-03-28T13:00:40.226Z,36.82
2019-03-28T13:03:08.850Z,36.92
2019-03-28T13:05:37.425Z,37.11
2019-03-28T13:08:06.000Z,37.04
2019-03-28T13:10:34.605Z,37.43
2019-03-28T13:13:03.942Z,37.11
2019-03-28T13:15:32.643Z,37.09
2019-03-28T13:18:01.055Z,37.22
2019-03-28T13:20:29.624Z,36.38
2019-03-28T13:22:58.053Z,36.38
2019-03-28T13:25:26.479Z,35.80
2019-03-28T13:27:54.954Z,37.13
2019-03-28T13:30:23.903Z,36.53
2019-03-28T13:32:52.317Z,36.74
2019-03-28T13:35:20.784Z,37.32
2019-03-28T13:37:49.209Z,36.90
2019-03-28T13:40:17.775Z,36.76
2019-03-28T13:42:46.299Z,37.19
2019-03-28T13:45:16.627Z,38.16
2019-03-28T13:47:45.087Z,37.77
2019-03-28T13:50:14.492Z,37.19
2019-03-28T13:52:43.021Z,37.22
2019-03-28T13:55:11.517Z,36.69
2019-03-28T13:57:43.121Z,36.62
2019-03-28T14:00:11.540Z,36.98
2019-03-28T14:02:54.333Z,37.29
2019-03-28T14:05:13.060Z,37.75
2019-03-28T14:07:41.315Z,36.82
2019-03-28T14:10:10.215Z,37.75
2019-03-28T14:12:38.624Z,37.56
2019-03-28T14:15:07.710Z,37.09
2019-03-28T14:17:36.603Z,38.49
2019-03-28T14:20:08.798Z,37.58
2019-03-28T14:22:37.358Z,38.08
2019-03-28T14:25:06.904Z,38.20
2019-03-28T14:27:35.391Z,37.60
2019-03-28T14:30:05.378Z,37.30
2019-03-28T14:32:33.893Z,37.60
2019-03-28T14:35:02.341Z,37.04
2019-03-28T14:37:30.833Z,37.59
2019-03-28T14:39:59.336Z,37.79
2019-03-28T14:42:27.809Z,38.04
2019-03-28T14:44:56.291Z,38.63
2019-03-28T14:47:24.856Z,38.41
2019-03-28T14:49:53.513Z,37.76
2019-03-28T14:52:21.964Z,38.16
2019-03-28T14:54:50.377Z,37.78
2019-03-28T14:57:19.746Z,38.72
2019-03-28T14:59:49.780Z,38.58
2019-03-28T15:02:18.223Z,38.23
2019-03-28T15:04:46.755Z,38.27
2019-03-28T15:07:15.244Z,38.14
2019-03-28T15:09:43.673Z,37.96
2019-03-28T15:12:12.205Z,38.06
2019-03-28T15:14:40.728Z,39.27
2019-03-28T15:17:09.318Z,40.75
2019-03-28T15:19:37.774Z,40.75
2019-03-28T15:22:06.213Z,41.78
2019-03-28T15:24:35.541Z,41.47
2019-03-28T15:27:04.324Z,39.74
2019-03-28T15:29:32.828Z,39.45
2019-03-28T15:32:01.528Z,39.33
2019-03-28T15:34:29.935Z,39.73
2019-03-28T15:36:58.490Z,39.43
2019-03-28T15:39:26.919Z,40.27
2019-03-28T15:41:55.446Z,40.86
2019-03-28T15:44:23.876Z,41.05
2019-03-28T15:46:52.431Z,41.00
2019-03-28T15:49:20.871Z,41.91
2019-03-28T15:51:49.294Z,42.26
2019-03-28T15:54:17.746Z,42.28
2019-03-28T15:56:46.232Z,41.95
2019-03-28T15:59:14.688Z,41.65
2019-03-28T16:01:43.248Z,41.00
2019-03-28T16:04:11.801Z,41.29
2019-03-28T16:06:41.426Z,41.93
2019-03-28T16:09:10.089Z,42.29
2019-03-28T16:11:38.603Z,42.23
2019-03-28T16:14:07.011Z,42.26
2019-03-28T16:16:35.531Z,41.36
2019-03-28T16:19:04.025Z,41.75
2019-03-28T16:21:32.544Z,42.26
2019-03-28T16:24:00.960Z,42.56
2019-03-28T16:26:29.379Z,42.59
2019-03-28T16:28:57.912Z,42.61
2019-03-28T16:31:26.360Z,42.55
2019-03-28T16:34:06.308Z,42.58
2019-03-28T16:36:25.127Z,42.84
2019-03-28T16:38:53.625Z,42.78
2019-03-28T16:41:22.077Z,42.85
2019-03-28T16:43:50.621Z,43.01
2019-03-28T16:46:19.104Z,43.35
2019-03-28T16:48:47.524Z,43.89
2019-03-28T16:51:17.655Z,44.42
2019-03-28T16:53:46.257Z,44.72
2019-03-28T16:56:14.876Z,44.97
2019-03-28T16:58:43.306Z,44.89
2019-03-28T17:01:11.801Z,45.08
2019-03-28T17:03:40.342Z,45.20
2019-03-28T17:06:09.161Z,45.35
2019-03-28T17:08:37.721Z,45.24
2019-03-28T17:11:06.215Z,44.63
2019-03-28T17:13:34.765Z,45.40
2019-03-28T17:16:03.422Z,45.95
2019-03-28T17:18:31.853Z,45.79
2019-03-28T17:21:00.399Z,45.97
2019-03-28T17:23:28.842Z,46.28
2019-03-28T17:25:57.476Z,46.39
2019-03-28T17:28:26.063Z,46.66
2019-03-28T17:30:54.509Z,46.82
2019-03-28T17:33:23.484Z,47.10
2019-03-28T17:35:51.990Z,47.17
2019-03-28T17:38:20.490Z,47.43
2019-03-28T17:40:49.049Z,47.48
2019-03-28T17:43:17.448Z,47.26
2019-03-28T17:45:45.978Z,47.72
2019-03-28T17:48:14.579Z,48.25
2019-03-28T17:50:43.763Z,47.82
2019-03-28T17:53:13.015Z,47.66
2019-03-28T17:55:41.502Z,47.87
2019-03-28T17:58:10.057Z,47.98
2019-03-28T18:00:39.033Z,48.43
2019-03-28T18:03:09.491Z,48.68
2019-03-28T18:05:40.508Z,48.44
2019-03-28T18:08:08.267Z,48.86
2019-03-28T18:10:36.838Z,49.10
2019-03-28T18:13:05.653Z,49.16
2019-03-28T18:15:34.413Z,49.33
2019-03-28T18:18:02.828Z,49.33
2019-03-28T18:20:31.499Z,49.59
2019-03-28T18:22:59.928Z,49.89
2019-03-28T18:25:30.348Z,49.87
2019-03-28T18:27:58.710Z,50.36
2019-03-28T18:30:27.397Z,50.17
2019-03-28T18:32:55.835Z,50.11
2019-03-28T18:35:24.716Z,50.52
2019-03-28T18:37:53.211Z,50.21
2019-03-28T18:40:21.659Z,50.42
2019-03-28T18:42:50.165Z,50.99
2019-03-28T18:45:18.727Z,51.42
2019-03-28T18:47:47.257Z,51.33
2019-03-28T18:50:16.229Z,51.79
2019-03-28T18:52:44.730Z,51.40
2019-03-28T18:55:13.528Z,51.46
2019-03-28T18:57:41.982Z,51.60
2019-03-28T19:00:11.101Z,51.84
2019-03-28T19:02:39.595Z,52.15
2019-03-28T19:05:19.026Z,52.52
2019-03-28T19:07:38.778Z,52.58
2019-03-28T19:10:08.321Z,52.57
2019-03-28T19:12:36.867Z,53.37
2019-03-28T19:15:07.155Z,53.90
2019-03-28T19:17:35.967Z,54.01
2019-03-28T19:20:07.615Z,54.01
2019-03-28T19:22:36.681Z,54.36
2019-03-28T19:25:08.861Z,54.63
2019-03-28T19:27:38.346Z,54.75
2019-03-28T19:30:07.604Z,55.31
2019-03-28T19:32:36.116Z,55.72
2019-03-28T19:35:07.049Z,55.64
2019-03-28T19:37:37.335Z,56.35
2019-03-28T19:40:08.828Z,56.03
2019-03-28T19:42:37.709Z,56.12
2019-03-28T19:45:06.976Z,56.74
2019-03-28T19:47:35.428Z,57.55
2019-03-28T19:50:08.355Z,59.72
2019-03-28T19:52:37.043Z,60.57
2019-03-28T19:55:06.795Z,61.05
2019-03-28T19:57:35.283Z,61.74
2019-03-28T20:00:05.719Z,62.45
2019-03-28T20:02:34.270Z,63.41
2019-03-28T20:05:02.948Z,63.61
2019-03-28T20:07:31.389Z,64.30
2019-03-28T20:09:59.838Z,64.16
2019-03-28T20:12:28.293Z,64.78
2019-03-28T20:14:59.953Z,64.35
2019-03-28T20:17:26.971Z,65.24
2019-03-28T20:19:55.487Z,65.93
2019-03-28T20:22:24.072Z,65.88
2019-03-28T20:24:52.581Z,66.23
2019-03-28T20:27:21.016Z,66.51
2019-03-28T20:29:49.491Z,66.54
2019-03-28T20:32:18.087Z,66.81
2019-03-28T20:34:49.110Z,67.24
2019-03-28T20:37:16.778Z,66.70
2019-03-28T20:39:45.365Z,66.51
2019-03-28T20:42:13.819Z,66.81
2019-03-28T20:44:42.276Z,66.69
2019-03-28T20:47:10.803Z,67.12
2019-03-28T20:49:39.234Z,66.71
2019-03-28T20:52:09.450Z,66.95
2019-03-28T20:54:37.871Z,66.91
2019-03-28T20:57:06.375Z,67.13
2019-03-28T20:59:34.871Z,68.04
2019-03-28T21:02:03.416Z,67.75
2019-03-28T21:04:32.191Z,67.96
2019-03-28T21:07:00.735Z,68.17
2019-03-28T21:09:29.291Z,69.11
2019-03-28T21:11:57.804Z,69.61
2019-03-28T21:14:26.228Z,68.90
2019-03-28T21:16:57.923Z,69.12
2019-03-28T21:19:24.981Z,70.19
2019-03-28T21:21:54.207Z,70.67
2019-03-28T21:24:23.408Z,71.17
2019-03-28T21:26:51.958Z,71.66
2019-03-28T21:29:20.447Z,71.08
2019-03-28T21:31:50.303Z,72.00
2019-03-28T21:34:19.145Z,71.99
2019-03-28T21:36:47.641Z,72.33
2019-03-28T21:39:16.171Z,71.81
2019-03-28T21:41:45.964Z,71.53
2019-03-28T21:44:14.663Z,71.99
2019-03-28T21:46:43.091Z,72.56
2019-03-28T21:49:11.630Z,72.37
2019-03-28T21:51:40.137Z,72.59
2019-03-28T21:54:08.570Z,71.77
2019-03-28T21:56:37.027Z,71.91
2019-03-28T21:59:05.536Z,72.59
2019-03-28T22:01:34.118Z,72.54
2019-03-28T22:04:02.574Z,74.07
2019-03-28T22:06:42.335Z,74.12
2019-03-28T22:09:01.615Z,73.41
2019-03-28T22:11:30.112Z,74.09
2019-03-28T22:13:58.616Z,73.85
2019-03-28T22:16:27.077Z,74.36
2019-03-28T22:18:55.496Z,75.20
2019-03-28T22:21:27.236Z,75.72
2019-03-28T22:23:54.153Z,74.93
2019-03-28T22:26:22.811Z,75.24
2019-03-28T22:28:51.226Z,75.77
2019-03-28T22:31:19.797Z,75.95
2019-03-28T22:33:48.266Z,75.90
2019-03-28T22:36:17.902Z,76.49
2019-03-28T22:38:46.849Z,76.01
2019-03-28T22:41:15.475Z,76.89
2019-03-28T22:43:43.924Z,76.33
2019-03-28T22:46:12.337Z,76.69
2019-03-28T22:48:40.780Z,76.62
2019-03-28T22:51:09.346Z,76.63
2019-03-28T22:53:37.908Z,75.61
2019-03-28T22:56:06.534Z,75.62
2019-03-28T22:58:35.037Z,75.93
2019-03-28T23:01:04.475Z,75.96
2019-03-28T23:03:32.981Z,76.23
2019-03-28T23:06:01.483Z,75.72
2019-03-28T23:08:30.012Z,75.38
2019-03-28T23:10:58.506Z,75.30
2019-03-28T23:13:27.160Z,74.99
2019-03-28T23:15:55.636Z,75.77
2019-03-28T23:18:24.135Z,75.41
2019-03-28T23:20:52.678Z,75.60
2019-03-28T23:23:21.173Z,77.58
2019-03-28T23:25:49.608Z,77.49
2019-03-28T23:28:18.855Z,78.03
2019-03-28T23:31:51.363Z,77.70
2019-03-28T23:34:19.900Z,77.27
2019-03-28T23:36:48.327Z,78.00
2019-03-28T23:39:16.789Z,78.97
2019-03-28T23:41:45.242Z,78.97
2019-03-28T23:44:13.662Z,79.57
2019-03-28T23:46:42.366Z,80.05
2019-03-28T23:49:10.775Z,79.72
2019-03-28T23:51:39.193Z,80.08
2019-03-28T23:54:07.689Z,78.55
2019-03-28T23:56:36.919Z,78.32
2019-03-28T23:59:05.492Z,77.84
